createdAt,value
2019-06-20T00:00:08.374Z,5.30
2019-06-20T00:02:37.831Z,5.07
2019-06-20T00:05:08.014Z,5.27
2019-06-20T00:07:36.665Z,4.90
2019-06-20T00:10:06.074Z,5.17
2019-06-20T00:12:34.733Z,5.33
2019-06-20T00:15:04.225Z,5.20
2019-06-20T00:17:32.825Z,4.30
2019-06-20T00:20:01.538Z,4.80
2019-06-20T00:22:30.381Z,4.90
2019-06-20T00:25:02.794Z,5.87
2019-06-20T00:27:29.281Z,5.30
2019-06-20T00:29:57.900Z,5.63
2019-06-20T00:32:28.796Z,6.03
2019-06-20T00:34:57.477Z,5.43
2019-06-20T00:37:26.068Z,6.10
2019-06-20T00:39:54.704Z,6.10
2019-06-20T00:42:23.436Z,6.30
2019-06-20T00:44:52.138Z,6.77
2019-06-20T00:47:20.811Z,7.13
2019-06-20T00:49:49.604Z,6.40
2019-06-20T00:52:18.427Z,6.80
2019-06-20T00:54:48.118Z,5.93
2019-06-20T00:57:16.776Z,4.87
2019-06-20T00:59:45.499Z,4.17
2019-06-20T01:02:14.093Z,4.17
2019-06-20T01:04:42.873Z,4.80
2019-06-20T01:07:11.465Z,5.83
2019-06-20T01:09:40.301Z,6.57
2019-06-20T01:12:08.966Z,7.00
2019-06-20T01:14:37.686Z,8.50
2019-06-20T01:17:06.866Z,7.50
2019-06-20T01:19:35.426Z,8.33
2019-06-20T01:22:04.289Z,8.40
2019-06-20T01:24:33.313Z,7.47
2019-06-20T01:27:02.102Z,6.33
2019-06-20T01:29:30.862Z,5.50
2019-06-20T01:31:59.495Z,7.47
2019-06-20T01:34:28.173Z,5.77
2019-06-20T01:36:56.732Z,6.40
2019-06-20T01:39:25.300Z,4.73
2019-06-20T01:42:02.702Z,4.40
2019-06-20T01:44:30.341Z,4.90
2019-06-20T01:47:02.901Z,4.50
2019-06-20T01:49:31.595Z,4.93
2019-06-20T01:52:00.249Z,5.07
2019-06-20T01:54:32.138Z,4.97
2019-06-20T01:57:00.971Z,5.87
2019-06-20T01:59:29.659Z,4.77
2019-06-20T02:01:58.356Z,5.30
2019-06-20T02:04:27.022Z,5.23
2019-06-20T02:06:55.654Z,4.57
2019-06-20T02:09:24.246Z,5.40
2019-06-20T02:11:52.941Z,4.93
2019-06-20T02:14:21.653Z,5.10
2019-06-20T02:16:50.305Z,5.10
2019-06-20T02:19:18.998Z,6.10
2019-06-20T02:21:47.565Z,5.97
2019-06-20T02:24:16.143Z,6.13
2019-06-20T02:26:44.777Z,6.03
2019-06-20T02:29:14.465Z,8.47
2019-06-20T02:31:43.088Z,6.63
2019-06-20T02:34:11.746Z,7.60
2019-06-20T02:36:40.451Z,8.47
2019-06-20T02:39:09.183Z,6.20
2019-06-20T02:41:37.882Z,8.57
2019-06-20T02:44:27.813Z,8.30
2019-06-20T02:46:37.854Z,9.90
2019-06-20T02:49:06.515Z,10.90
2019-06-20T02:51:35.443Z,7.80
2019-06-20T02:54:04.474Z,8.07
2019-06-20T02:56:33.028Z,6.13
2019-06-20T02:59:01.645Z,5.30
2019-06-20T03:01:30.179Z,5.27
2019-06-20T03:03:58.838Z,5.07
2019-06-20T03:06:27.466Z,5.10
2019-06-20T03:08:56.059Z,6.40
2019-06-20T03:11:24.686Z,5.33
2019-06-20T03:13:53.276Z,6.50
2019-06-20T03:16:21.833Z,5.77
2019-06-20T03:18:50.426Z,5.80
2019-06-20T03:21:18.987Z,7.57
2019-06-20T03:23:47.564Z,8.13
2019-06-20T03:26:16.257Z,5.07
2019-06-20T03:28:44.850Z,8.20
2019-06-20T03:31:19.513Z,6.60
2019-06-20T03:33:48.251Z,6.20
2019-06-20T03:36:16.796Z,5.47
2019-06-20T03:38:45.395Z,5.47
2019-06-20T03:41:14.099Z,6.47
2019-06-20T03:43:42.690Z,5.53
2019-06-20T03:46:11.312Z,5.87
2019-06-20T03:48:39.902Z,5.47
2019-06-20T03:51:08.487Z,6.07
2019-06-20T03:53:37.075Z,5.50
2019-06-20T03:56:05.697Z,4.70
2019-06-20T03:58:34.553Z,5.63
2019-06-20T04:01:03.192Z,4.70
2019-06-20T04:03:31.765Z,4.07
2019-06-20T04:06:00.409Z,3.60
2019-06-20T04:08:29.084Z,3.90
2019-06-20T04:10:57.958Z,3.30
2019-06-20T04:13:26.627Z,3.67
2019-06-20T04:15:55.181Z,3.50
2019-06-20T04:18:23.769Z,3.00
2019-06-20T04:20:52.398Z,3.40
2019-06-20T04:23:20.955Z,3.47
2019-06-20T04:25:49.550Z,3.30
2019-06-20T04:28:18.114Z,2.90
2019-06-20T04:30:46.708Z,2.83
2019-06-20T04:33:15.269Z,2.73
2019-06-20T04:35:43.925Z,2.80
2019-06-20T04:38:12.761Z,2.70
2019-06-20T04:40:41.858Z,2.50
2019-06-20T04:43:10.506Z,2.40
2019-06-20T04:45:40.849Z,2.80
2019-06-20T04:48:09.531Z,2.10
2019-06-20T04:50:38.181Z,2.40
2019-06-20T04:53:06.990Z,2.37
2019-06-20T04:55:35.798Z,2.57
2019-06-20T04:58:04.305Z,2.30
2019-06-20T05:00:32.961Z,2.20
2019-06-20T05:03:01.512Z,2.10
2019-06-20T05:05:30.242Z,2.00
2019-06-20T05:07:58.788Z,1.80
2019-06-20T05:10:27.526Z,1.80
2019-06-20T05:12:56.263Z,1.90
2019-06-20T05:15:24.803Z,1.77
2019-06-20T05:17:53.457Z,1.87
2019-06-20T05:20:22.055Z,1.70
2019-06-20T05:22:50.664Z,1.70
2019-06-20T05:25:19.280Z,1.60
2019-06-20T05:27:47.869Z,1.90
2019-06-20T05:30:16.864Z,1.77
2019-06-20T05:32:45.489Z,1.63
2019-06-20T05:35:14.314Z,2.00
2019-06-20T05:37:42.869Z,2.20
2019-06-20T05:40:12.094Z,2.00
2019-06-20T05:42:40.724Z,2.10
2019-06-20T05:45:10.554Z,1.60
2019-06-20T05:47:39.256Z,1.80
2019-06-20T05:50:09.454Z,2.00
2019-06-20T05:52:38.011Z,1.70
2019-06-20T05:55:08.403Z,2.00
2019-06-20T05:57:36.981Z,1.70
2019-06-20T06:00:10.671Z,1.80
2019-06-20T06:02:40.189Z,1.83
2019-06-20T06:05:09.513Z,1.90
2019-06-20T06:07:38.068Z,2.00
2019-06-20T06:10:07.807Z,1.83
2019-06-20T06:12:36.522Z,1.90
2019-06-20T06:15:08.631Z,1.60
2019-06-20T06:17:37.533Z,1.77
2019-06-20T06:20:08.793Z,2.00
2019-06-20T06:22:37.490Z,1.67
2019-06-20T06:25:06.817Z,1.73
2019-06-20T06:27:35.461Z,1.70
2019-06-20T06:30:06.870Z,1.60
2019-06-20T06:32:40.220Z,1.70
2019-06-20T06:35:07.592Z,1.77
2019-06-20T06:37:36.398Z,1.53
2019-06-20T06:40:11.209Z,1.90
2019-06-20T06:42:39.834Z,1.80
2019-06-20T06:45:09.332Z,1.90
2019-06-20T06:47:38.347Z,1.90
2019-06-20T06:50:07.674Z,2.10
2019-06-20T06:52:36.403Z,1.93
2019-06-20T06:55:07.173Z,1.80
2019-06-20T06:57:36.143Z,1.70
2019-06-20T07:00:10.133Z,1.73
2019-06-20T07:02:38.819Z,1.70
2019-06-20T07:05:08.064Z,2.00
2019-06-20T07:07:36.802Z,1.87
2019-06-20T07:10:07.015Z,1.70
2019-06-20T07:12:35.611Z,1.80
2019-06-20T07:15:07.151Z,1.83
2019-06-20T07:17:35.852Z,1.87
2019-06-20T07:20:06.992Z,2.10
2019-06-20T07:22:36.618Z,2.00
2019-06-20T07:25:06.894Z,1.77
2019-06-20T07:27:35.557Z,1.90
2019-06-20T07:30:06.650Z,1.90
2019-06-20T07:32:35.386Z,1.70
2019-06-20T07:35:06.483Z,1.90
2019-06-20T07:37:35.271Z,1.70
2019-06-20T07:40:06.230Z,2.10
2019-06-20T07:42:34.900Z,1.93
2019-06-20T07:45:07.667Z,1.87
2019-06-20T07:47:37.190Z,1.80
2019-06-20T07:50:10.330Z,1.90
2019-06-20T07:52:39.084Z,1.63
2019-06-20T07:55:09.212Z,2.00
2019-06-20T07:57:37.896Z,1.70
2019-06-20T08:00:09.362Z,1.80
2019-06-20T08:02:38.159Z,1.53
2019-06-20T08:05:07.463Z,1.80
2019-06-20T08:07:36.203Z,1.80
2019-06-20T08:10:08.412Z,1.87
2019-06-20T08:12:37.157Z,1.70
2019-06-20T08:15:15.150Z,1.73
2019-06-20T08:17:38.377Z,1.87
2019-06-20T08:20:09.052Z,1.83
2019-06-20T08:22:37.674Z,1.77
2019-06-20T08:25:09.107Z,1.90
2019-06-20T08:27:50.030Z,1.80
2019-06-20T08:30:21.826Z,1.83
2019-06-20T08:32:50.652Z,1.90
2019-06-20T08:35:24.093Z,2.00
2019-06-20T08:37:54.018Z,2.00
2019-06-20T08:40:24.208Z,2.07
2019-06-20T08:42:53.524Z,1.70
2019-06-20T08:45:27.138Z,1.50
2019-06-20T08:47:57.015Z,1.80
2019-06-20T08:50:26.416Z,1.70
2019-06-20T08:52:56.079Z,1.60
2019-06-20T08:55:25.653Z,1.57
2019-06-20T08:57:55.651Z,1.60
2019-06-20T09:00:26.256Z,1.70
2019-06-20T09:02:56.863Z,1.55
2019-06-20T09:05:26.298Z,2.00
2019-06-20T09:07:56.757Z,1.62
2019-06-20T09:10:28.682Z,1.50
2019-06-20T09:12:59.121Z,1.70
2019-06-20T09:15:29.384Z,1.37
2019-06-20T09:18:00.734Z,1.45
2019-06-20T09:20:28.738Z,1.60
2019-06-20T09:22:58.854Z,1.50
2019-06-20T09:25:27.874Z,1.20
2019-06-20T09:27:58.070Z,1.57
2019-06-20T09:30:27.133Z,1.37
2019-06-20T09:32:55.857Z,1.42
2019-06-20T09:35:25.470Z,1.50
2019-06-20T09:37:55.169Z,1.32
2019-06-20T09:40:24.145Z,1.20
2019-06-20T09:42:52.996Z,1.60
2019-06-20T09:45:22.157Z,1.30
2019-06-20T09:47:52.116Z,1.35
2019-06-20T09:50:22.036Z,1.52
2019-06-20T09:52:51.560Z,1.40
2019-06-20T09:55:21.945Z,1.60
2019-06-20T09:57:51.910Z,1.25
2019-06-20T10:00:26.629Z,1.35
2019-06-20T10:02:56.331Z,1.40
2019-06-20T10:05:26.121Z,1.50
2019-06-20T10:07:56.637Z,1.60
2019-06-20T10:10:29.860Z,1.57
2019-06-20T10:12:59.026Z,1.32
2019-06-20T10:15:37.027Z,1.40
2019-06-20T10:18:05.917Z,1.47
2019-06-20T10:20:35.131Z,1.37
2019-06-20T10:23:06.078Z,1.32
2019-06-20T10:25:36.962Z,1.50
2019-06-20T10:28:06.409Z,1.50
2019-06-20T10:30:35.721Z,1.37
2019-06-20T10:33:05.604Z,1.50
2019-06-20T10:35:35.478Z,1.50
2019-06-20T10:38:04.869Z,1.57
2019-06-20T10:40:34.817Z,1.45
2019-06-20T10:43:03.405Z,1.30
2019-06-20T10:45:33.039Z,1.60
2019-06-20T10:48:02.313Z,1.70
2019-06-20T10:50:32.704Z,1.30
2019-06-20T10:53:01.966Z,1.60
2019-06-20T10:55:31.160Z,1.40
2019-06-20T10:58:00.302Z,1.40
2019-06-20T11:00:32.237Z,1.20
2019-06-20T11:03:01.071Z,1.42
2019-06-20T11:05:29.837Z,1.32
2019-06-20T11:07:58.512Z,1.40
2019-06-20T11:10:31.438Z,1.30
2019-06-20T11:13:00.187Z,1.27
2019-06-20T11:15:30.907Z,1.20
2019-06-20T11:17:59.570Z,1.15
2019-06-20T11:20:28.777Z,1.22
2019-06-20T11:22:57.669Z,1.20
2019-06-20T11:25:26.451Z,1.50
2019-06-20T11:27:55.629Z,1.20
2019-06-20T11:30:26.892Z,1.40
2019-06-20T11:32:55.478Z,1.40
2019-06-20T11:35:24.037Z,1.40
2019-06-20T11:37:52.674Z,1.50
2019-06-20T11:40:21.808Z,1.30
2019-06-20T11:42:50.458Z,1.47
2019-06-20T11:45:20.165Z,1.53
2019-06-20T11:47:48.966Z,1.30
2019-06-20T11:50:18.448Z,1.20
2019-06-20T11:52:47.047Z,1.32
2019-06-20T11:55:17.342Z,1.35
2019-06-20T11:57:45.996Z,1.32
2019-06-20T12:00:16.693Z,1.30
2019-06-20T12:02:46.092Z,1.37
2019-06-20T12:05:17.468Z,1.35
2019-06-20T12:07:47.893Z,1.27
2019-06-20T12:10:17.564Z,1.50
2019-06-20T12:12:49.278Z,1.62
2019-06-20T12:15:18.676Z,1.50
2019-06-20T12:17:48.844Z,1.20
2019-06-20T12:20:18.621Z,1.70
2019-06-20T12:22:50.535Z,1.45
2019-06-20T12:25:18.204Z,1.47
2019-06-20T12:27:47.612Z,1.50
2019-06-20T12:30:18.001Z,1.40
2019-06-20T12:32:47.551Z,1.43
2019-06-20T12:35:16.180Z,1.30
2019-06-20T12:37:45.197Z,1.40
2019-06-20T12:40:14.903Z,1.60
2019-06-20T12:42:44.759Z,1.63
2019-06-20T12:45:15.737Z,1.50
2019-06-20T12:47:45.913Z,1.40
2019-06-20T12:50:15.737Z,1.60
2019-06-20T12:52:45.693Z,2.90
2019-06-20T12:55:14.965Z,3.20
2019-06-20T12:57:44.185Z,4.17
2019-06-20T13:00:15.383Z,3.73
2019-06-20T13:02:45.453Z,2.63
2019-06-20T13:05:16.537Z,3.70
2019-06-20T13:07:46.754Z,3.33
2019-06-20T13:10:16.008Z,3.30
2019-06-20T13:12:46.423Z,3.13
2019-06-20T13:15:17.103Z,3.13
2019-06-20T13:17:47.024Z,2.90
2019-06-20T13:20:16.534Z,2.80
2019-06-20T13:22:46.604Z,3.97
2019-06-20T13:25:16.918Z,4.47
2019-06-20T13:27:47.829Z,3.63
2019-06-20T13:30:17.107Z,3.80
2019-06-20T13:32:47.137Z,3.80
2019-06-20T13:35:16.563Z,3.07
2019-06-20T13:37:45.691Z,2.57
2019-06-20T13:40:16.125Z,2.60
2019-06-20T13:42:48.055Z,2.50
2019-06-20T13:45:25.039Z,2.80
2019-06-20T13:47:54.500Z,2.33
2019-06-20T13:50:25.120Z,2.23
2019-06-20T13:52:54.783Z,2.37
2019-06-20T13:55:23.741Z,2.73
2019-06-20T13:57:52.606Z,2.90
2019-06-20T14:00:24.260Z,2.50
2019-06-20T14:02:53.055Z,2.20
2019-06-20T14:05:21.878Z,2.50
2019-06-20T14:07:54.270Z,2.40
2019-06-20T14:10:22.646Z,2.50
2019-06-20T14:12:53.382Z,2.40
2019-06-20T14:15:22.179Z,2.80
2019-06-20T14:17:50.955Z,2.43
2019-06-20T14:20:21.777Z,2.73
2019-06-20T14:22:50.492Z,2.73
2019-06-20T14:25:20.120Z,2.23
2019-06-20T14:30:38.270Z,2.10
2019-06-20T14:33:06.893Z,2.40
2019-06-20T14:35:35.640Z,2.57
2019-06-20T14:38:04.273Z,2.60
2019-06-20T14:40:32.829Z,2.50
2019-06-20T14:43:01.566Z,2.50
2019-06-20T14:45:30.321Z,2.47
2019-06-20T14:47:59.473Z,2.60
2019-06-20T14:50:28.203Z,2.40
2019-06-20T14:52:56.888Z,2.40
2019-06-20T14:55:25.546Z,2.67
2019-06-20T14:57:54.737Z,2.53
2019-06-20T15:00:24.727Z,2.47
2019-06-20T15:02:58.098Z,2.30
2019-06-20T15:05:23.971Z,2.57
2019-06-20T15:07:53.942Z,2.53
2019-06-20T15:10:23.468Z,2.23
2019-06-20T15:12:53.719Z,2.63
2019-06-20T15:15:22.887Z,2.80
2019-06-20T15:17:54.017Z,2.47
2019-06-20T15:20:22.403Z,2.60
2019-06-20T15:22:52.721Z,2.60
2019-06-20T15:25:21.659Z,2.77
2019-06-20T15:27:53.146Z,2.33
2019-06-20T15:30:21.765Z,2.20
2019-06-20T15:33:01.797Z,1.90
2019-06-20T15:35:21.070Z,2.40
2019-06-20T15:37:51.262Z,2.07
2019-06-20T15:40:20.251Z,2.00
2019-06-20T15:42:51.092Z,1.70
2019-06-20T15:45:19.848Z,1.90
2019-06-20T15:47:48.636Z,1.67
2019-06-20T15:50:17.655Z,2.00
2019-06-20T15:52:46.657Z,1.97
2019-06-20T15:55:18.793Z,1.83
2019-06-20T15:57:47.743Z,1.70
2019-06-20T16:00:18.338Z,1.63
2019-06-20T16:02:47.069Z,1.70
2019-06-20T16:05:15.769Z,1.60
2019-06-20T16:07:44.372Z,1.83
2019-06-20T16:10:14.373Z,1.53
2019-06-20T16:12:43.142Z,1.60
2019-06-20T16:15:14.013Z,1.50
2019-06-20T16:17:42.663Z,1.60
2019-06-20T16:20:12.259Z,1.67
2019-06-20T16:22:41.155Z,1.70
2019-06-20T16:25:10.096Z,1.77
2019-06-20T16:27:38.930Z,1.50
2019-06-20T16:30:09.830Z,1.70
2019-06-20T16:32:38.549Z,1.77
2019-06-20T16:35:08.382Z,1.70
2019-06-20T16:37:37.228Z,1.80
2019-06-20T16:40:07.217Z,1.80
2019-06-20T16:42:35.894Z,1.93
2019-06-20T16:45:06.403Z,1.80
2019-06-20T16:47:35.424Z,1.73
2019-06-20T16:50:06.027Z,1.63
2019-06-20T16:52:34.861Z,1.83
2019-06-20T16:55:04.050Z,1.87
2019-06-20T16:57:32.722Z,1.70
2019-06-20T17:00:01.297Z,1.90
2019-06-20T17:02:29.886Z,1.77
2019-06-20T17:04:58.444Z,1.67
2019-06-20T17:07:27.649Z,1.83
2019-06-20T17:09:56.250Z,1.90
2019-06-20T17:12:24.924Z,1.87
2019-06-20T17:14:53.587Z,1.83
2019-06-20T17:17:22.295Z,2.17
2019-06-20T17:19:50.882Z,2.40
2019-06-20T17:22:19.535Z,1.90
2019-06-20T17:24:48.157Z,2.10
2019-06-20T17:27:16.767Z,2.10
2019-06-20T17:29:45.352Z,2.00
2019-06-20T17:32:13.977Z,2.40
2019-06-20T17:34:42.646Z,1.97
2019-06-20T17:37:11.338Z,1.90
2019-06-20T17:39:39.929Z,2.10
2019-06-20T17:42:08.582Z,2.00
2019-06-20T17:44:37.163Z,2.10
2019-06-20T17:47:05.963Z,2.00
2019-06-20T17:49:34.505Z,1.83
2019-06-20T17:52:03.226Z,1.70
2019-06-20T17:54:31.852Z,1.80
2019-06-20T17:57:00.442Z,2.10
2019-06-20T17:59:29.021Z,1.60
2019-06-20T18:01:58.100Z,1.63
2019-06-20T18:04:27.010Z,1.93
2019-06-20T18:06:55.929Z,1.90
2019-06-20T18:09:24.512Z,1.87
2019-06-20T18:11:53.135Z,2.30
2019-06-20T18:14:22.083Z,1.83
2019-06-20T18:16:53.009Z,2.03
2019-06-20T18:19:21.870Z,1.80
2019-06-20T18:21:50.457Z,2.00
2019-06-20T18:24:19.493Z,2.30
2019-06-20T18:26:51.091Z,2.20
2019-06-20T18:29:21.191Z,2.10
2019-06-20T18:31:51.529Z,2.10
2019-06-20T18:34:29.687Z,2.30
2019-06-20T18:36:50.425Z,2.03
2019-06-20T18:39:19.159Z,2.50
2019-06-20T18:41:48.695Z,2.60
2019-06-20T18:44:17.366Z,2.30
2019-06-20T18:46:45.922Z,2.23
2019-06-20T18:49:14.563Z,2.50
2019-06-20T18:51:43.201Z,2.80
2019-06-20T18:54:12.902Z,2.53
2019-06-20T18:56:41.605Z,3.10
2019-06-20T18:59:10.366Z,4.50
2019-06-20T19:01:39.731Z,5.07
2019-06-20T19:04:08.523Z,5.57
2019-06-20T19:06:37.238Z,4.40
2019-06-20T19:09:08.407Z,4.67
2019-06-20T19:11:37.147Z,3.40
2019-06-20T19:14:07.008Z,3.73
2019-06-20T19:16:35.686Z,4.40
2019-06-20T19:19:04.939Z,3.90
2019-06-20T19:21:34.089Z,3.77
2019-06-20T19:24:04.561Z,3.73
2019-06-20T19:26:34.264Z,3.33
2019-06-20T19:29:05.589Z,4.20
2019-06-20T19:31:35.040Z,4.00
2019-06-20T19:34:04.495Z,4.20
2019-06-20T19:36:33.610Z,4.47
2019-06-20T19:39:03.403Z,4.77
2019-06-20T19:41:32.222Z,4.00
2019-06-20T19:44:01.953Z,3.83
2019-06-20T19:46:30.979Z,4.40
2019-06-20T19:49:00.138Z,3.87
2019-06-20T19:51:29.421Z,4.27
2019-06-20T19:53:58.782Z,4.17
2019-06-20T19:56:29.622Z,4.50
2019-06-20T19:58:58.719Z,4.53
2019-06-20T20:01:27.864Z,5.10
2019-06-20T20:03:58.889Z,6.43
2019-06-20T20:06:29.947Z,6.90
2019-06-20T20:08:59.133Z,8.03
2019-06-20T20:11:28.491Z,7.93
2019-06-20T20:13:57.747Z,7.60
2019-06-20T20:16:26.819Z,5.67
2019-06-20T20:18:55.586Z,6.83
2019-06-20T20:21:24.347Z,7.97
2019-06-20T20:23:53.093Z,7.90
2019-06-20T20:26:22.066Z,7.17
2019-06-20T20:28:50.997Z,4.27
2019-06-20T20:31:20.930Z,2.63
2019-06-20T20:33:49.548Z,2.10
2019-06-20T20:36:24.921Z,3.00
2019-06-20T20:38:48.560Z,3.70
2019-06-20T20:41:17.117Z,2.80
2019-06-20T20:43:46.300Z,3.83
2019-06-20T20:46:15.357Z,3.30
2019-06-20T20:48:44.029Z,3.47
2019-06-20T20:51:12.580Z,3.50
2019-06-20T20:53:41.570Z,3.53
2019-06-20T20:56:10.422Z,3.70
2019-06-20T20:58:39.558Z,4.07
2019-06-20T21:01:29.051Z,4.10
2019-06-20T21:03:58.125Z,4.40
2019-06-20T21:06:27.700Z,4.57
2019-06-20T21:08:56.513Z,4.27
2019-06-20T21:11:25.221Z,8.43
2019-06-20T21:13:53.940Z,11.10
2019-06-20T21:16:22.524Z,7.53
2019-06-20T21:18:51.267Z,7.03
2019-06-20T21:21:20.166Z,5.63
2019-06-20T21:23:48.877Z,4.20
2019-06-20T21:26:17.739Z,4.23
2019-06-20T21:28:46.328Z,3.23
2019-06-20T21:31:15.156Z,4.50
2019-06-20T21:33:43.838Z,4.00
2019-06-20T21:36:12.543Z,3.77
2019-06-20T21:38:41.244Z,4.40
2019-06-20T21:41:10.034Z,3.87
2019-06-20T21:43:39.105Z,4.20
2019-06-20T21:46:08.028Z,7.00
2019-06-20T21:48:36.617Z,5.17
2019-06-20T21:51:05.553Z,9.27
2019-06-20T21:53:34.204Z,10.43
2019-06-20T21:56:02.873Z,10.80
2019-06-20T21:58:31.505Z,7.20
2019-06-20T22:01:01.620Z,7.50
2019-06-20T22:03:30.814Z,7.03
2019-06-20T22:05:59.734Z,5.83
2019-06-20T22:08:28.452Z,4.87
2019-06-20T22:10:57.305Z,5.30
2019-06-20T22:13:26.090Z,4.20
2019-06-20T22:15:54.823Z,5.13
2019-06-20T22:18:23.551Z,4.93
2019-06-20T22:20:52.284Z,5.27
2019-06-20T22:23:20.967Z,5.43
2019-06-20T22:25:49.710Z,5.60
2019-06-20T22:28:18.467Z,4.70
2019-06-20T22:30:52.867Z,4.53
2019-06-20T22:33:21.779Z,11.57
2019-06-20T22:35:50.625Z,6.60
2019-06-20T22:38:19.425Z,5.73
2019-06-20T22:40:48.354Z,6.67
2019-06-20T22:43:17.051Z,5.37
2019-06-20T22:45:46.146Z,5.50
2019-06-20T22:48:14.813Z,10.90
2019-06-20T22:50:43.615Z,14.03
2019-06-20T22:53:12.277Z,13.07
2019-06-20T22:55:40.842Z,11.27
2019-06-20T22:58:10.001Z,8.03
2019-06-20T23:00:38.630Z,10.73
2019-06-20T23:03:07.378Z,12.40
2019-06-20T23:05:36.013Z,11.10
2019-06-20T23:08:04.850Z,9.13
2019-06-20T23:10:33.481Z,11.70
2019-06-20T23:13:02.087Z,13.17
2019-06-20T23:15:30.646Z,9.70
2019-06-20T23:17:59.301Z,13.53
2019-06-20T23:20:27.865Z,14.80
2019-06-20T23:22:56.422Z,12.83
2019-06-20T23:25:25.029Z,10.23
2019-06-20T23:27:53.657Z,9.57
2019-06-20T23:30:22.795Z,15.40
2019-06-20T23:32:51.490Z,17.60
2019-06-20T23:35:20.085Z,18.33
2019-06-20T23:37:48.645Z,10.93
2019-06-20T23:40:17.669Z,12.13
2019-06-20T23:42:46.310Z,12.37
2019-06-20T23:45:15.817Z,13.07
2019-06-20T23:47:44.409Z,11.03
2019-06-20T23:50:19.635Z,8.13
2019-06-20T23:53:00.914Z,7.73
2019-06-20T23:55:29.496Z,7.67
2019-06-20T23:57:58.317Z,8.97
